createdAt,value
2023-06-22T00:00:13.273Z,23.25
2023-06-22T00:01:15.496Z,23.28
2023-06-22T00:02:17.875Z,23.31
2023-06-22T00:03:21.389Z,23.34
2023-06-22T00:04:23.342Z,23.36
2023-06-22T00:05:25.183Z,23.36
2023-06-22T00:06:26.926Z,23.29
2023-06-22T00:07:28.728Z,23.25
2023-06-22T00:08:30.496Z,23.22
2023-06-22T00:09:33.768Z,23.26
2023-06-22T00:10:36.386Z,23.23
2023-06-22T00:11:38.637Z,23.23
2023-06-22T00:12:40.361Z,23.15
2023-06-22T00:13:42.211Z,23.10
2023-06-22T00:14:43.978Z,23.07
2023-06-22T00:15:45.958Z,23.05
2023-06-22T00:16:49.827Z,23.09
2023-06-22T00:17:52.448Z,23.02
2023-06-22T00:18:54.282Z,23.08
2023-06-22T00:19:56.419Z,23.06
2023-06-22T00:20:59.038Z,23.07
2023-06-22T00:22:01.481Z,23.03
2023-06-22T00:23:07.655Z,23.04
2023-06-22T00:24:09.483Z,23.04
2023-06-22T00:25:11.802Z,23.02
2023-06-22T00:26:13.579Z,23.00
2023-06-22T00:27:15.405Z,22.98
2023-06-22T00:28:17.169Z,22.97
2023-06-22T00:29:19.777Z,22.95
2023-06-22T00:30:21.558Z,22.91
2023-06-22T00:31:23.460Z,22.88
2023-06-22T00:32:25.276Z,22.77
2023-06-22T00:33:27.248Z,22.80
2023-06-22T00:34:28.978Z,22.78
2023-06-22T00:35:30.804Z,22.81
2023-06-22T00:36:32.582Z,22.79
2023-06-22T00:37:34.377Z,22.80
2023-06-22T00:38:36.308Z,22.81
2023-06-22T00:39:38.043Z,22.82
2023-06-22T00:40:40.057Z,22.83
2023-06-22T00:41:41.795Z,22.83
2023-06-22T00:42:43.635Z,22.80
2023-06-22T00:43:47.061Z,22.81
2023-06-22T00:44:48.843Z,22.82
2023-06-22T00:45:50.698Z,22.73
2023-06-22T00:46:53.471Z,22.67
2023-06-22T00:48:00.413Z,22.61
2023-06-22T00:49:02.456Z,22.61
2023-06-22T00:50:08.039Z,22.63
2023-06-22T00:51:09.944Z,22.55
2023-06-22T00:52:15.069Z,22.38
2023-06-22T00:53:18.520Z,22.31
2023-06-22T00:54:25.617Z,22.25
2023-06-22T00:55:27.791Z,22.35
2023-06-22T00:56:31.136Z,22.37
2023-06-22T00:57:33.363Z,22.39
2023-06-22T00:58:36.097Z,22.39
2023-06-22T00:59:37.935Z,22.27
2023-06-22T01:00:42.317Z,22.27
2023-06-22T01:01:44.148Z,22.29
2023-06-22T01:02:53.116Z,22.36
2023-06-22T01:03:58.817Z,22.38
2023-06-22T01:05:00.957Z,22.29
2023-06-22T01:06:15.869Z,22.36
2023-06-22T01:07:42.133Z,22.40
2023-06-22T01:08:55.127Z,22.40
2023-06-22T01:10:19.738Z,22.32
2023-06-22T01:11:29.322Z,22.31
2023-06-22T01:12:34.232Z,22.31
2023-06-22T01:13:44.946Z,22.33
2023-06-22T01:14:56.537Z,22.27
2023-06-22T01:16:10.304Z,22.27
2023-06-22T01:17:14.521Z,22.21
2023-06-22T01:18:18.658Z,22.25
2023-06-22T01:19:38.697Z,22.25
2023-06-22T01:20:41.952Z,22.23
2023-06-22T01:21:45.777Z,22.22
2023-06-22T01:22:54.645Z,22.31
2023-06-22T01:24:20.937Z,22.32
2023-06-22T01:25:32.434Z,22.27
2023-06-22T01:27:16.360Z,22.31
2023-06-22T01:28:25.669Z,22.33
2023-06-22T01:29:28.710Z,22.35
2023-06-22T01:30:32.018Z,22.37
2023-06-22T01:31:36.894Z,22.36
2023-06-22T01:32:40.533Z,22.36
2023-06-22T01:33:44.988Z,22.35
2023-06-22T01:34:48.629Z,22.34
2023-06-22T01:35:50.480Z,22.30
2023-06-22T01:36:53.850Z,22.33
2023-06-22T01:37:56.489Z,22.29
2023-06-22T01:38:58.974Z,22.35
2023-06-22T01:40:01.832Z,22.36
2023-06-22T01:41:05.018Z,22.31
2023-06-22T01:42:07.630Z,22.38
2023-06-22T01:43:10.042Z,22.32
2023-06-22T01:44:12.952Z,22.31
2023-06-22T01:45:16.057Z,22.38
2023-06-22T01:46:20.521Z,22.38
2023-06-22T01:47:24.658Z,22.32
2023-06-22T01:48:27.280Z,22.36
2023-06-22T01:49:29.445Z,22.39
2023-06-22T01:50:31.647Z,22.39
2023-06-22T01:51:33.934Z,22.37
2023-06-22T01:52:35.724Z,22.35
2023-06-22T01:53:37.523Z,22.28
2023-06-22T01:54:41.321Z,22.25
2023-06-22T01:55:43.089Z,22.22
2023-06-22T01:56:44.942Z,22.31
2023-06-22T01:57:46.873Z,22.28
2023-06-22T01:58:59.540Z,22.30
2023-06-22T02:00:05.879Z,22.30
2023-06-22T02:01:12.562Z,22.28
2023-06-22T02:02:18.143Z,22.26
2023-06-22T02:03:24.129Z,22.27
2023-06-22T02:04:34.658Z,22.23
2023-06-22T02:05:39.788Z,22.10
2023-06-22T02:06:44.363Z,22.08
2023-06-22T02:07:50.586Z,22.08
2023-06-22T02:08:58.557Z,22.08
2023-06-22T02:10:03.158Z,22.10
2023-06-22T02:11:07.487Z,22.03
2023-06-22T02:12:11.592Z,22.07
2023-06-22T02:13:15.336Z,22.09
2023-06-22T02:14:19.671Z,22.08
2023-06-22T02:15:22.363Z,22.05
2023-06-22T02:16:24.254Z,22.01
2023-06-22T02:17:27.611Z,22.11
2023-06-22T02:18:29.455Z,22.12
2023-06-22T02:19:34.478Z,22.07
2023-06-22T02:20:40.499Z,22.09
2023-06-22T02:21:42.279Z,22.10
2023-06-22T02:22:44.107Z,22.11
2023-06-22T02:23:45.852Z,22.10
2023-06-22T02:24:47.623Z,22.07
2023-06-22T02:25:49.536Z,22.08
2023-06-22T02:26:51.353Z,22.08
2023-06-22T02:27:53.282Z,22.06
2023-06-22T02:28:55.017Z,21.87
2023-06-22T02:29:56.757Z,21.94
2023-06-22T02:30:58.597Z,21.96
2023-06-22T02:32:00.483Z,21.91
2023-06-22T02:33:02.385Z,21.98
2023-06-22T02:34:04.147Z,21.95
2023-06-22T02:35:06.158Z,21.95
2023-06-22T02:36:10.307Z,21.94
2023-06-22T02:37:13.761Z,21.90
2023-06-22T02:38:15.867Z,21.90
2023-06-22T02:39:26.458Z,21.89
2023-06-22T02:40:28.818Z,21.86
2023-06-22T02:41:31.058Z,21.83
2023-06-22T02:42:32.812Z,21.85
2023-06-22T02:43:34.593Z,21.80
2023-06-22T02:44:36.340Z,21.86
2023-06-22T02:45:38.153Z,21.63
2023-06-22T02:46:40.089Z,21.50
2023-06-22T02:47:41.915Z,21.54
2023-06-22T02:48:45.795Z,21.56
2023-06-22T02:49:48.952Z,21.59
2023-06-22T02:50:50.749Z,21.54
2023-06-22T02:51:52.499Z,21.59
2023-06-22T02:52:54.346Z,21.52
2023-06-22T02:53:58.883Z,21.41
2023-06-22T02:55:01.177Z,21.44
2023-06-22T02:56:06.496Z,21.40
2023-06-22T02:57:08.235Z,21.44
2023-06-22T02:58:10.021Z,21.45
2023-06-22T02:59:12.426Z,21.45
2023-06-22T03:00:20.902Z,21.43
2023-06-22T03:01:25.397Z,21.39
2023-06-22T03:02:28.180Z,21.41
2023-06-22T03:03:30.073Z,21.44
2023-06-22T03:04:32.622Z,21.39
2023-06-22T03:05:36.398Z,21.41
2023-06-22T03:06:38.230Z,21.42
2023-06-22T03:07:43.719Z,21.37
2023-06-22T03:08:45.508Z,21.41
2023-06-22T03:09:47.450Z,21.46
2023-06-22T03:10:49.229Z,21.46
2023-06-22T03:11:51.037Z,21.49
2023-06-22T03:12:52.867Z,21.50
2023-06-22T03:13:54.609Z,21.51
2023-06-22T03:14:56.367Z,21.55
2023-06-22T03:15:58.083Z,21.55
2023-06-22T03:17:04.236Z,21.55
2023-06-22T03:18:06.287Z,21.58
2023-06-22T03:19:08.190Z,21.67
2023-06-22T03:20:12.294Z,21.72
2023-06-22T03:21:14.079Z,21.70
2023-06-22T03:22:16.364Z,21.75
2023-06-22T03:23:18.166Z,21.73
2023-06-22T03:24:19.885Z,21.79
2023-06-22T03:25:21.682Z,21.81
2023-06-22T03:26:24.694Z,21.87
2023-06-22T03:27:26.510Z,21.81
2023-06-22T03:28:28.229Z,21.86
2023-06-22T03:29:31.434Z,21.94
2023-06-22T03:30:33.700Z,21.97
2023-06-22T03:31:35.533Z,21.98
2023-06-22T03:32:37.554Z,22.06
2023-06-22T03:33:39.595Z,22.07
2023-06-22T03:34:42.322Z,22.15
2023-06-22T03:35:44.145Z,22.22
2023-06-22T03:36:46.560Z,22.23
2023-06-22T03:37:48.299Z,22.26
2023-06-22T03:38:51.516Z,22.37
2023-06-22T03:39:53.946Z,22.42
2023-06-22T03:40:55.729Z,22.49
2023-06-22T03:41:57.450Z,22.53
2023-06-22T03:42:59.180Z,22.60
2023-06-22T03:44:00.887Z,22.65
2023-06-22T03:45:02.838Z,22.70
2023-06-22T03:46:04.804Z,22.78
2023-06-22T03:47:08.454Z,22.88
2023-06-22T03:48:10.233Z,22.98
2023-06-22T03:49:12.062Z,23.02
2023-06-22T03:50:15.037Z,23.11
2023-06-22T03:51:16.846Z,23.22
2023-06-22T03:52:18.561Z,23.31
2023-06-22T03:53:20.405Z,23.41
2023-06-22T03:54:22.144Z,23.51
2023-06-22T03:55:23.910Z,23.59
2023-06-22T03:56:25.653Z,23.65
2023-06-22T03:57:27.468Z,23.75
2023-06-22T03:58:34.329Z,23.80
2023-06-22T03:59:36.463Z,23.90
2023-06-22T04:00:38.212Z,23.96
2023-06-22T04:01:39.979Z,24.07
2023-06-22T04:02:41.790Z,24.14
2023-06-22T04:03:44.211Z,24.24
2023-06-22T04:04:46.197Z,24.36
2023-06-22T04:05:49.302Z,24.45
2023-06-22T04:06:51.021Z,24.49
2023-06-22T04:07:52.779Z,24.47
2023-06-22T04:08:54.548Z,24.50
2023-06-22T04:09:56.297Z,24.57
2023-06-22T04:10:58.069Z,24.66
2023-06-22T04:11:59.809Z,24.72
2023-06-22T04:13:01.788Z,24.88
2023-06-22T04:14:03.561Z,24.98
2023-06-22T04:15:05.823Z,25.10
2023-06-22T04:16:07.601Z,25.21
2023-06-22T04:17:09.335Z,25.33
2023-06-22T04:18:11.236Z,25.31
2023-06-22T04:19:17.610Z,25.49
2023-06-22T04:20:19.403Z,25.59
2023-06-22T04:21:21.291Z,25.71
2023-06-22T04:22:23.069Z,25.70
2023-06-22T04:23:24.814Z,25.82
2023-06-22T04:24:26.601Z,25.86
2023-06-22T04:25:28.394Z,25.87
2023-06-22T04:26:30.135Z,25.90
2023-06-22T04:27:31.948Z,26.01
2023-06-22T04:28:36.604Z,26.05
2023-06-22T04:29:39.360Z,26.18
2023-06-22T04:30:47.800Z,26.30
2023-06-22T04:31:52.509Z,26.43
2023-06-22T04:32:58.912Z,26.52
2023-06-22T04:34:07.292Z,26.60
2023-06-22T04:35:09.424Z,26.79
2023-06-22T04:36:14.479Z,26.89
2023-06-22T04:37:16.952Z,26.95
2023-06-22T04:38:18.796Z,27.14
2023-06-22T04:39:20.619Z,27.29
2023-06-22T04:40:23.956Z,27.43
2023-06-22T04:41:25.714Z,27.58
2023-06-22T04:42:28.322Z,27.69
2023-06-22T04:43:31.711Z,27.75
2023-06-22T04:44:33.589Z,27.90
2023-06-22T04:45:38.954Z,28.00
2023-06-22T04:46:41.320Z,28.16
2023-06-22T04:47:43.088Z,28.24
2023-06-22T04:48:44.825Z,28.31
2023-06-22T04:49:46.941Z,28.35
2023-06-22T04:50:48.771Z,28.46
2023-06-22T04:51:53.053Z,28.53
2023-06-22T04:52:54.882Z,28.58
2023-06-22T04:54:02.023Z,28.66
2023-06-22T04:55:05.013Z,28.69
2023-06-22T04:56:06.810Z,28.73
2023-06-22T04:57:11.876Z,28.72
2023-06-22T04:58:14.257Z,28.77
2023-06-22T04:59:18.836Z,28.76
2023-06-22T05:00:24.458Z,28.91
2023-06-22T05:01:28.631Z,29.02
2023-06-22T05:02:33.360Z,29.04
2023-06-22T05:03:35.331Z,29.12
2023-06-22T05:04:42.080Z,29.16
2023-06-22T05:05:44.038Z,29.28
2023-06-22T05:06:46.693Z,29.38
2023-06-22T05:07:53.935Z,29.41
2023-06-22T05:08:59.403Z,29.50
2023-06-22T05:10:02.937Z,29.22
2023-06-22T05:11:06.061Z,28.58
2023-06-22T05:12:11.118Z,28.33
2023-06-22T05:13:13.010Z,28.06
2023-06-22T05:14:15.241Z,27.82
2023-06-22T05:15:17.130Z,27.82
2023-06-22T05:16:19.041Z,28.03
2023-06-22T05:17:21.012Z,28.08
2023-06-22T05:18:24.860Z,28.19
2023-06-22T05:19:35.510Z,28.26
2023-06-22T05:20:37.647Z,28.59
2023-06-22T05:21:40.139Z,28.85
2023-06-22T05:22:42.200Z,29.09
2023-06-22T05:23:44.624Z,29.31
2023-06-22T05:24:46.832Z,29.43
2023-06-22T05:25:48.660Z,29.61
2023-06-22T05:26:50.387Z,29.82
2023-06-22T05:27:53.072Z,30.00
2023-06-22T05:28:54.996Z,30.07
2023-06-22T05:29:56.743Z,30.21
2023-06-22T05:30:58.643Z,30.37
2023-06-22T05:32:00.455Z,30.54
2023-06-22T05:33:03.555Z,30.70
2023-06-22T05:34:05.355Z,30.90
2023-06-22T05:35:07.336Z,31.02
2023-06-22T05:36:10.003Z,31.23
2023-06-22T05:37:13.923Z,31.39
2023-06-22T05:38:15.708Z,31.52
2023-06-22T05:39:17.544Z,31.65
2023-06-22T05:40:19.392Z,31.59
2023-06-22T05:41:21.364Z,31.62
2023-06-22T05:42:23.188Z,31.61
2023-06-22T05:43:24.941Z,31.69
2023-06-22T05:44:26.733Z,31.71
2023-06-22T05:45:28.502Z,31.76
2023-06-22T05:46:30.340Z,31.93
2023-06-22T05:47:32.091Z,32.00
2023-06-22T05:48:33.915Z,32.12
2023-06-22T05:49:35.716Z,32.27
2023-06-22T05:50:38.428Z,32.34
2023-06-22T05:51:40.619Z,32.37
2023-06-22T05:52:42.371Z,32.49
2023-06-22T05:53:45.627Z,32.64
2023-06-22T05:54:47.455Z,32.77
2023-06-22T05:55:49.449Z,32.90
2023-06-22T05:56:51.290Z,32.93
2023-06-22T05:57:53.063Z,33.00
2023-06-22T05:58:54.820Z,33.12
2023-06-22T05:59:56.562Z,33.26
2023-06-22T06:00:58.289Z,33.32
2023-06-22T06:02:00.034Z,33.47
2023-06-22T06:03:04.866Z,33.57
2023-06-22T06:04:09.360Z,33.60
2023-06-22T06:05:17.388Z,33.69
2023-06-22T06:06:19.337Z,33.63
2023-06-22T06:07:21.082Z,33.41
2023-06-22T06:08:22.861Z,33.47
2023-06-22T06:09:24.695Z,33.59
2023-06-22T06:10:26.628Z,33.70
2023-06-22T06:11:28.469Z,33.77
2023-06-22T06:12:30.197Z,33.89
2023-06-22T06:13:31.933Z,34.07
2023-06-22T06:14:33.655Z,34.24
2023-06-22T06:15:36.020Z,34.39
2023-06-22T06:16:37.874Z,34.54
2023-06-22T06:17:53.721Z,34.65
2023-06-22T06:18:57.186Z,34.30
2023-06-22T06:20:00.495Z,34.19
2023-06-22T06:21:02.277Z,34.27
2023-06-22T06:22:04.267Z,34.40
2023-06-22T06:23:06.187Z,34.52
2023-06-22T06:24:08.025Z,34.63
2023-06-22T06:25:10.359Z,34.64
2023-06-22T06:26:12.173Z,34.78
2023-06-22T06:27:14.069Z,34.89
2023-06-22T06:28:15.892Z,35.00
2023-06-22T06:29:17.715Z,35.15
2023-06-22T06:30:20.764Z,35.22
2023-06-22T06:31:22.592Z,35.40
2023-06-22T06:32:24.499Z,35.51
2023-06-22T06:33:26.509Z,35.58
2023-06-22T06:34:28.299Z,35.72
2023-06-22T06:35:30.341Z,35.88
2023-06-22T06:36:32.668Z,35.96
2023-06-22T06:37:38.995Z,36.04
2023-06-22T06:38:40.814Z,36.20
2023-06-22T06:39:43.861Z,36.34
2023-06-22T06:40:46.577Z,36.45
2023-06-22T06:41:48.662Z,36.57
2023-06-22T06:42:50.543Z,36.68
2023-06-22T06:43:53.124Z,36.79
2023-06-22T06:44:54.889Z,36.88
2023-06-22T06:45:56.718Z,36.93
2023-06-22T06:46:58.645Z,36.80
2023-06-22T06:48:00.405Z,36.98
2023-06-22T06:49:02.156Z,37.04
2023-06-22T06:50:05.964Z,37.06
2023-06-22T06:51:10.592Z,37.09
2023-06-22T06:52:12.446Z,37.14
2023-06-22T06:53:14.314Z,37.17
2023-06-22T06:54:16.720Z,37.32
2023-06-22T06:55:20.558Z,37.42
2023-06-22T06:56:22.462Z,37.48
2023-06-22T06:57:24.279Z,37.55
2023-06-22T06:58:26.041Z,37.69
2023-06-22T06:59:27.760Z,37.75
2023-06-22T07:00:29.772Z,37.86
2023-06-22T07:01:34.989Z,37.99
2023-06-22T07:02:37.197Z,38.15
2023-06-22T07:03:39.167Z,38.25
2023-06-22T07:04:40.908Z,38.20
2023-06-22T07:05:42.752Z,38.32
2023-06-22T07:06:44.503Z,38.34
2023-06-22T07:07:46.353Z,38.31
2023-06-22T07:08:48.089Z,38.34
2023-06-22T07:09:49.879Z,38.47
2023-06-22T07:10:53.479Z,38.51
2023-06-22T07:11:55.239Z,38.60
2023-06-22T07:12:58.499Z,38.77
2023-06-22T07:14:01.855Z,38.86
2023-06-22T07:15:09.596Z,38.93
2023-06-22T07:16:11.425Z,39.03
2023-06-22T07:17:13.231Z,39.00
2023-06-22T07:18:15.052Z,38.79
2023-06-22T07:19:16.868Z,38.84
2023-06-22T07:20:20.543Z,38.82
2023-06-22T07:21:22.361Z,38.86
2023-06-22T07:22:24.162Z,38.79
2023-06-22T07:23:26.061Z,38.89
2023-06-22T07:24:29.147Z,38.97
2023-06-22T07:25:30.898Z,38.93
2023-06-22T07:26:33.260Z,38.92
2023-06-22T07:27:38.004Z,38.96
2023-06-22T07:28:41.826Z,38.96
2023-06-22T07:29:44.451Z,38.91
2023-06-22T07:30:46.224Z,38.72
2023-06-22T07:31:48.777Z,38.49
2023-06-22T07:32:50.558Z,38.44
2023-06-22T07:33:52.616Z,38.38
2023-06-22T07:34:54.353Z,38.24
2023-06-22T07:35:56.249Z,38.15
2023-06-22T07:36:58.035Z,37.83
2023-06-22T07:38:03.131Z,37.60
2023-06-22T07:39:07.154Z,37.45
2023-06-22T07:40:09.778Z,37.34
2023-06-22T07:41:11.784Z,37.26
2023-06-22T07:42:13.547Z,37.29
2023-06-22T07:43:15.381Z,37.32
2023-06-22T07:44:17.102Z,37.34
2023-06-22T07:45:23.334Z,37.39
2023-06-22T07:46:25.374Z,37.43
2023-06-22T07:47:29.364Z,37.52
2023-06-22T07:48:31.340Z,37.56
2023-06-22T07:49:33.049Z,37.70
2023-06-22T07:50:34.808Z,37.83
2023-06-22T07:51:36.581Z,38.06
2023-06-22T07:52:38.413Z,38.19
2023-06-22T07:53:44.067Z,38.18
2023-06-22T07:54:45.908Z,38.14
2023-06-22T07:55:49.787Z,38.18
2023-06-22T07:56:52.043Z,38.26
2023-06-22T07:57:53.960Z,38.34
2023-06-22T07:58:56.240Z,38.54
2023-06-22T07:59:57.950Z,38.65
2023-06-22T08:01:00.031Z,38.68
2023-06-22T08:02:04.455Z,38.80
2023-06-22T08:03:06.390Z,38.93
2023-06-22T08:04:08.399Z,38.97
2023-06-22T08:05:20.669Z,39.13
2023-06-22T08:06:24.377Z,39.31
2023-06-22T08:07:26.139Z,39.46
2023-06-22T08:08:27.895Z,39.54
2023-06-22T08:09:30.583Z,39.63
2023-06-22T08:10:32.380Z,39.62
2023-06-22T08:11:35.127Z,39.54
2023-06-22T08:12:36.913Z,39.42
2023-06-22T08:13:38.710Z,39.58
2023-06-22T08:14:40.807Z,39.56
2023-06-22T08:15:42.600Z,39.42
2023-06-22T08:16:44.374Z,39.32
2023-06-22T08:17:47.509Z,39.31
2023-06-22T08:18:49.322Z,39.39
2023-06-22T08:19:51.493Z,39.47
2023-06-22T08:20:53.363Z,39.49
2023-06-22T08:21:55.166Z,39.57
2023-06-22T08:22:59.132Z,39.50
2023-06-22T08:24:00.891Z,39.57
2023-06-22T08:25:02.652Z,39.76
2023-06-22T08:26:04.372Z,39.95
2023-06-22T08:27:10.671Z,40.14
2023-06-22T08:28:12.575Z,40.29
2023-06-22T08:29:14.377Z,40.27
2023-06-22T08:30:16.864Z,40.25
2023-06-22T08:31:19.078Z,40.50
2023-06-22T08:32:21.005Z,40.51
2023-06-22T08:33:29.668Z,40.52
2023-06-22T08:34:31.694Z,40.62
2023-06-22T08:35:33.721Z,40.49
2023-06-22T08:36:38.761Z,40.44
2023-06-22T08:37:40.846Z,40.45
2023-06-22T08:38:42.714Z,40.51
2023-06-22T08:39:44.673Z,40.64
2023-06-22T08:40:46.465Z,40.84
2023-06-22T08:41:49.183Z,40.87
2023-06-22T08:42:51.230Z,40.73
2023-06-22T08:43:53.001Z,40.56
2023-06-22T08:44:55.060Z,40.74
2023-06-22T08:45:57.067Z,40.91
2023-06-22T08:46:58.802Z,41.00
2023-06-22T08:48:00.644Z,41.05
2023-06-22T08:49:02.515Z,41.09
2023-06-22T08:50:04.993Z,41.14
2023-06-22T08:51:06.812Z,41.18
2023-06-22T08:52:09.144Z,41.20
2023-06-22T08:53:10.951Z,41.19
2023-06-22T08:54:12.708Z,41.25
2023-06-22T08:55:15.686Z,41.36
2023-06-22T08:56:17.618Z,41.41
2023-06-22T08:57:19.365Z,41.49
2023-06-22T08:58:22.365Z,41.55
2023-06-22T08:59:24.106Z,41.64
2023-06-22T09:00:28.394Z,41.77
2023-06-22T09:01:30.121Z,41.50
2023-06-22T09:02:33.177Z,41.07
2023-06-22T09:03:39.057Z,41.06
2023-06-22T09:04:41.045Z,40.93
2023-06-22T09:05:42.955Z,40.87
2023-06-22T09:06:46.383Z,40.94
2023-06-22T09:07:48.145Z,41.10
2023-06-22T09:08:50.310Z,41.31
2023-06-22T09:09:52.723Z,41.52
2023-06-22T09:10:54.488Z,41.58
2023-06-22T09:11:56.260Z,41.42
2023-06-22T09:13:01.043Z,41.19
2023-06-22T09:14:02.801Z,41.19
2023-06-22T09:15:05.042Z,41.40
2023-06-22T09:16:06.910Z,41.51
2023-06-22T09:17:08.672Z,41.59
2023-06-22T09:18:15.124Z,41.59
2023-06-22T09:19:16.931Z,41.56
2023-06-22T09:20:18.728Z,41.42
2023-06-22T09:21:20.476Z,41.22
2023-06-22T09:22:22.293Z,41.25
2023-06-22T09:23:24.462Z,41.26
2023-06-22T09:24:26.173Z,41.26
2023-06-22T09:25:28.258Z,41.32
2023-06-22T09:26:30.316Z,41.38
2023-06-22T09:27:32.046Z,41.49
2023-06-22T09:28:34.653Z,41.46
2023-06-22T09:29:36.388Z,41.56
2023-06-22T09:30:38.353Z,41.64
2023-06-22T09:31:40.442Z,41.74
2023-06-22T09:32:43.486Z,41.91
2023-06-22T09:33:45.543Z,41.98
2023-06-22T09:34:47.302Z,42.15
2023-06-22T09:35:49.286Z,42.20
2023-06-22T09:36:51.000Z,42.22
2023-06-22T09:37:54.053Z,42.04
2023-06-22T09:38:59.886Z,41.93
2023-06-22T09:40:01.913Z,42.05
2023-06-22T09:41:03.736Z,42.06
2023-06-22T09:42:07.480Z,41.80
2023-06-22T09:43:09.207Z,41.65
2023-06-22T09:44:11.137Z,41.63
2023-06-22T09:45:13.006Z,41.30
2023-06-22T09:46:16.881Z,41.13
2023-06-22T09:47:18.681Z,41.06
2023-06-22T09:48:22.777Z,41.10
2023-06-22T09:49:41.909Z,40.98
2023-06-22T09:50:46.313Z,40.93
2023-06-22T09:51:48.088Z,40.67
2023-06-22T09:52:55.813Z,40.61
2023-06-22T09:53:58.107Z,40.71
2023-06-22T09:54:59.822Z,40.72
2023-06-22T09:56:03.206Z,40.90
2023-06-22T09:57:05.283Z,40.92
2023-06-22T09:58:07.139Z,41.00
2023-06-22T09:59:18.422Z,41.10
2023-06-22T10:00:20.855Z,41.22
2023-06-22T10:01:22.915Z,41.37
2023-06-22T10:02:24.860Z,41.48
2023-06-22T10:03:27.313Z,41.47
2023-06-22T10:04:29.389Z,41.53
2023-06-22T10:05:31.737Z,41.43
2023-06-22T10:06:33.806Z,41.34
2023-06-22T10:07:35.859Z,41.28
2023-06-22T10:08:37.714Z,40.94
2023-06-22T10:09:39.476Z,40.92
2023-06-22T10:10:41.206Z,40.98
2023-06-22T10:11:42.957Z,41.08
2023-06-22T10:12:49.222Z,41.01
2023-06-22T10:13:50.946Z,41.12
2023-06-22T10:14:52.663Z,41.08
2023-06-22T10:15:54.940Z,41.11
2023-06-22T10:16:58.469Z,41.27
2023-06-22T10:18:01.861Z,41.40
2023-06-22T10:19:03.709Z,41.46
2023-06-22T10:20:16.315Z,41.55
2023-06-22T10:21:18.204Z,41.28
2023-06-22T10:22:19.942Z,41.17
2023-06-22T10:23:22.064Z,41.24
2023-06-22T10:24:23.796Z,41.40
2023-06-22T10:25:25.575Z,41.48
2023-06-22T10:26:30.063Z,41.45
2023-06-22T10:27:32.707Z,41.60
2023-06-22T10:28:34.442Z,41.41
2023-06-22T10:29:36.164Z,41.29
2023-06-22T10:30:37.974Z,41.19
2023-06-22T10:31:39.955Z,41.19
2023-06-22T10:32:44.193Z,41.15
2023-06-22T10:33:46.402Z,41.02
2023-06-22T10:34:48.144Z,41.28
2023-06-22T10:35:50.188Z,41.23
2023-06-22T10:36:51.924Z,41.34
2023-06-22T10:37:55.651Z,41.45
2023-06-22T10:38:59.716Z,41.48
2023-06-22T10:40:01.467Z,41.46
2023-06-22T10:41:03.730Z,41.32
2023-06-22T10:42:05.799Z,41.15
2023-06-22T10:43:07.516Z,41.16
2023-06-22T10:44:09.337Z,41.27
2023-06-22T10:45:11.422Z,41.42
2023-06-22T10:46:13.740Z,41.72
2023-06-22T10:47:15.696Z,41.97
2023-06-22T10:48:17.441Z,42.24
2023-06-22T10:49:19.285Z,42.37
2023-06-22T10:50:21.523Z,42.49
2023-06-22T10:51:23.281Z,42.61
2023-06-22T10:52:25.055Z,42.53
2023-06-22T10:53:26.791Z,42.58
2023-06-22T10:54:28.544Z,42.80
2023-06-22T10:55:40.299Z,42.91
2023-06-22T10:56:51.961Z,43.03
2023-06-22T10:57:53.789Z,42.80
2023-06-22T10:58:55.716Z,42.70
2023-06-22T10:59:57.499Z,42.63
2023-06-22T11:01:00.283Z,42.80
2023-06-22T11:02:02.108Z,43.02
2023-06-22T11:03:04.028Z,43.04
2023-06-22T11:04:06.225Z,42.63
2023-06-22T11:05:08.709Z,42.54
2023-06-22T11:06:10.583Z,42.76
2023-06-22T11:07:13.492Z,43.02
2023-06-22T11:08:15.577Z,43.18
2023-06-22T11:09:27.552Z,43.33
2023-06-22T11:10:31.685Z,43.51
2023-06-22T11:11:34.047Z,43.66
2023-06-22T11:12:35.879Z,43.14
2023-06-22T11:13:37.660Z,43.18
2023-06-22T11:14:40.697Z,43.36
2023-06-22T11:15:42.603Z,43.39
2023-06-22T11:16:44.394Z,43.37
2023-06-22T11:17:47.314Z,43.45
2023-06-22T11:18:49.050Z,43.51
2023-06-22T11:19:50.771Z,43.63
2023-06-22T11:20:54.276Z,43.57
2023-06-22T11:21:56.134Z,43.22
2023-06-22T11:22:58.006Z,42.86
2023-06-22T11:24:00.932Z,42.66
2023-06-22T11:25:02.719Z,42.76
2023-06-22T11:26:04.466Z,42.89
2023-06-22T11:27:06.899Z,43.15
2023-06-22T11:28:08.654Z,43.24
2023-06-22T11:29:16.405Z,43.38
2023-06-22T11:30:25.869Z,43.36
2023-06-22T11:31:27.817Z,43.03
2023-06-22T11:32:29.829Z,43.09
2023-06-22T11:33:31.761Z,43.01
2023-06-22T11:34:33.479Z,42.76
2023-06-22T11:35:35.232Z,42.39
2023-06-22T11:36:36.999Z,42.26
2023-06-22T11:37:38.826Z,42.05
2023-06-22T11:38:40.697Z,41.89
2023-06-22T11:39:48.205Z,41.79
2023-06-22T11:40:55.412Z,41.68
2023-06-22T11:41:57.205Z,41.52
2023-06-22T11:42:58.959Z,41.42
2023-06-22T11:44:00.708Z,41.35
2023-06-22T11:45:03.024Z,41.50
2023-06-22T11:46:05.720Z,41.61
2023-06-22T11:47:07.822Z,41.65
2023-06-22T11:48:09.577Z,41.77
2023-06-22T11:49:11.344Z,41.93
2023-06-22T11:50:13.105Z,41.98
2023-06-22T11:51:14.910Z,42.05
2023-06-22T11:52:18.946Z,42.06
2023-06-22T11:53:21.636Z,42.05
2023-06-22T11:54:23.368Z,42.29
2023-06-22T11:55:25.123Z,42.30
2023-06-22T11:56:27.087Z,42.39
2023-06-22T11:57:28.799Z,42.43
2023-06-22T11:58:30.567Z,42.53
2023-06-22T11:59:32.293Z,42.60
2023-06-22T12:00:46.069Z,42.45
2023-06-22T12:01:52.919Z,42.48
2023-06-22T12:02:54.800Z,42.50
2023-06-22T12:03:56.937Z,42.51
2023-06-22T12:04:59.406Z,42.53
2023-06-22T12:06:02.019Z,42.28
2023-06-22T12:07:04.129Z,41.69
2023-06-22T12:08:05.914Z,40.16
2023-06-22T12:09:07.740Z,39.86
2023-06-22T12:10:09.939Z,39.89
2023-06-22T12:11:11.794Z,39.90
2023-06-22T12:12:13.533Z,40.03
2023-06-22T12:13:15.308Z,40.16
2023-06-22T12:14:17.153Z,40.16
2023-06-22T12:15:18.985Z,40.26
2023-06-22T12:16:22.664Z,40.29
2023-06-22T12:17:24.395Z,40.20
2023-06-22T12:18:26.174Z,40.08
2023-06-22T12:19:27.948Z,39.77
2023-06-22T12:20:30.302Z,39.75
2023-06-22T12:21:32.406Z,39.86
2023-06-22T12:22:34.484Z,39.81
2023-06-22T12:23:36.184Z,39.95
2023-06-22T12:24:37.933Z,39.99
2023-06-22T12:25:39.672Z,40.00
2023-06-22T12:26:41.485Z,39.94
2023-06-22T12:27:43.272Z,39.62
2023-06-22T12:28:45.023Z,39.40
2023-06-22T12:29:47.766Z,39.58
2023-06-22T12:30:49.526Z,39.55
2023-06-22T12:31:51.413Z,39.55
2023-06-22T12:32:54.599Z,39.43
2023-06-22T12:33:58.414Z,39.47
2023-06-22T12:35:00.507Z,39.35
2023-06-22T12:36:02.605Z,39.33
2023-06-22T12:37:05.460Z,39.32
2023-06-22T12:38:09.500Z,39.16
2023-06-22T12:39:11.460Z,39.12
2023-06-22T12:40:13.599Z,39.09
2023-06-22T12:41:15.337Z,39.16
2023-06-22T12:42:17.751Z,39.21
2023-06-22T12:43:20.001Z,39.23
2023-06-22T12:44:21.746Z,39.24
2023-06-22T12:45:23.512Z,39.04
2023-06-22T12:46:25.246Z,38.83
2023-06-22T12:47:26.989Z,38.49
2023-06-22T12:48:29.252Z,38.40
2023-06-22T12:49:31.022Z,38.27
2023-06-22T12:50:32.977Z,38.33
2023-06-22T12:51:35.247Z,38.34
2023-06-22T12:52:41.000Z,38.46
2023-06-22T12:53:42.767Z,38.59
2023-06-22T12:54:54.482Z,38.64
2023-06-22T12:55:59.897Z,38.80
2023-06-22T12:57:02.755Z,38.85
2023-06-22T12:58:04.535Z,38.66
2023-06-22T12:59:07.467Z,38.61
2023-06-22T13:00:11.526Z,38.51
2023-06-22T13:01:14.431Z,38.38
2023-06-22T13:02:16.654Z,38.38
2023-06-22T13:03:20.999Z,38.47
2023-06-22T13:04:22.902Z,38.57
2023-06-22T13:05:24.682Z,38.61
2023-06-22T13:06:26.637Z,38.74
2023-06-22T13:07:28.387Z,38.74
2023-06-22T13:09:14.133Z,38.74
2023-06-22T13:09:53.350Z,38.33
2023-06-22T13:10:55.402Z,38.14
2023-06-22T13:11:57.119Z,38.06
2023-06-22T13:13:01.959Z,38.08
2023-06-22T13:14:05.286Z,37.99
2023-06-22T13:15:08.920Z,37.75
2023-06-22T13:16:10.665Z,37.45
2023-06-22T13:17:13.703Z,37.26
2023-06-22T13:18:15.584Z,37.22
2023-06-22T13:19:17.352Z,37.20
2023-06-22T13:20:21.303Z,37.20
2023-06-22T13:21:23.029Z,37.20
2023-06-22T13:22:33.135Z,37.26
2023-06-22T13:23:35.251Z,37.25
2023-06-22T13:24:36.990Z,37.25
2023-06-22T13:25:38.897Z,37.19
2023-06-22T13:26:40.697Z,37.21
2023-06-22T13:27:43.200Z,37.13
2023-06-22T13:28:45.043Z,37.04
2023-06-22T13:29:46.759Z,36.95
2023-06-22T13:30:48.952Z,36.96
2023-06-22T13:31:51.255Z,36.93